Canefield Airport

Partly cloudy with slight haze
29oC (84oF)

Partly cloudy with slight haze


Winds: South easterly @ 07kts / 13km/h

Humidity: 57%

Barometric Pressure: 1010 mb

Accumulated Rainfall for November: 44.6 mm

Updated: 17:00 local time (21:00 UTC)

Douglas-Charles Airport

Partly cloudy with slight haze
27oC (81oF)

Partly cloudy with slight haze


Winds: Easterly @ 09kts / 17km/h

Humidity: 72%

Barometric Pressure: 1012 mb

Accumulated Rainfall for November: 362.0 mm

Updated: 17:00 local time (21:00 UTC)

Satellite Imagery

Satellite Imagery
Click image for larger view. (Source: National Hurricane Center).

Aviation Routine Report (METAR)

Douglas-Charles: METAR TDPD 202100Z 09009KT 9999 SCT017 27/22 Q1012=
Canefield: METAR TDCF 202100Z 14007KT 9999 FEW023 29/19 Q1010=